createdAt,value
2022-09-26T00:01:43.604Z,69.68
2022-09-26T00:04:21.209Z,70.02
2022-09-26T00:06:52.461Z,69.86
2022-09-26T00:09:23.826Z,69.54
2022-09-26T00:11:52.570Z,70.08
2022-09-26T00:14:24.793Z,69.74
2022-09-26T00:16:53.674Z,69.31
2022-09-26T00:19:22.122Z,68.96
2022-09-26T00:21:50.598Z,69.30
2022-09-26T00:24:19.462Z,68.99
2022-09-26T00:26:49.249Z,69.40
2022-09-26T00:29:17.599Z,69.42
2022-09-26T00:31:49.127Z,69.39
2022-09-26T00:34:20.641Z,69.46
2022-09-26T00:36:50.276Z,69.70
2022-09-26T00:39:18.846Z,69.97
2022-09-26T00:41:48.507Z,69.12
2022-09-26T00:44:43.453Z,69.35
2022-09-26T00:47:22.769Z,69.23
2022-09-26T00:49:54.781Z,70.05
2022-09-26T00:52:28.315Z,69.82
2022-09-26T00:55:00.007Z,69.76
2022-09-26T00:57:34.604Z,70.24
2022-09-26T01:00:06.735Z,70.26
2022-09-26T01:02:35.591Z,69.98
2022-09-26T01:05:06.000Z,70.28
2022-09-26T01:07:35.351Z,70.23
2022-09-26T01:10:05.894Z,70.39
2022-09-26T01:12:37.469Z,70.59
2022-09-26T01:15:09.223Z,70.65
2022-09-26T01:17:39.080Z,69.94
2022-09-26T01:20:26.067Z,69.85
2022-09-26T01:23:32.836Z,70.31
2022-09-26T01:26:30.580Z,70.47
2022-09-26T01:29:28.947Z,70.93
2022-09-26T01:32:23.219Z,70.78
2022-09-26T01:34:59.984Z,70.77
2022-09-26T01:37:34.770Z,70.92
2022-09-26T01:40:10.389Z,70.79
2022-09-26T01:42:46.924Z,70.78
2022-09-26T01:45:19.295Z,70.86
2022-09-26T01:47:56.449Z,70.63
2022-09-26T01:50:34.920Z,70.97
2022-09-26T01:53:07.684Z,71.20
2022-09-26T01:55:39.696Z,71.12
2022-09-26T01:58:13.247Z,70.90
2022-09-26T02:00:46.182Z,70.82
2022-09-26T02:03:20.117Z,70.73
2022-09-26T02:05:53.552Z,71.13
2022-09-26T02:08:26.811Z,70.95
2022-09-26T02:11:02.495Z,71.19
2022-09-26T02:13:36.610Z,71.46
2022-09-26T02:16:10.029Z,71.38
2022-09-26T02:18:44.257Z,71.15
2022-09-26T02:21:17.739Z,70.94
2022-09-26T02:23:46.293Z,70.96
2022-09-26T02:26:16.191Z,70.63
2022-09-26T02:28:44.866Z,70.70
2022-09-26T02:31:22.147Z,70.31
2022-09-26T02:33:52.997Z,70.42
2022-09-26T02:36:23.400Z,70.48
2022-09-26T02:38:51.666Z,70.97
2022-09-26T02:41:47.558Z,70.53
2022-09-26T02:44:38.501Z,70.42
2022-09-26T02:47:27.881Z,70.54
2022-09-26T02:50:20.487Z,70.56
2022-09-26T02:53:00.531Z,70.36
2022-09-26T02:55:44.318Z,70.50
2022-09-26T02:58:23.328Z,70.40
2022-09-26T03:01:00.757Z,70.77
2022-09-26T03:03:37.157Z,70.75
2022-09-26T03:06:10.113Z,71.01
2022-09-26T03:08:43.463Z,71.05
2022-09-26T03:11:16.985Z,71.19
2022-09-26T03:13:46.996Z,71.41
2022-09-26T03:16:16.170Z,71.30
2022-09-26T03:18:51.500Z,71.43
2022-09-26T03:21:22.317Z,71.37
2022-09-26T03:23:50.989Z,71.43
2022-09-26T03:26:22.252Z,71.39
2022-09-26T03:29:00.545Z,71.96
2022-09-26T03:31:31.752Z,72.00
2022-09-26T03:34:02.284Z,72.03
2022-09-26T03:36:33.250Z,72.01
2022-09-26T03:39:03.510Z,71.85
2022-09-26T03:41:38.571Z,71.69
2022-09-26T03:44:26.405Z,71.41
2022-09-26T03:47:03.784Z,70.65
2022-09-26T03:49:32.882Z,70.45
2022-09-26T03:52:03.072Z,70.88
2022-09-26T03:54:31.497Z,70.80
2022-09-26T03:56:59.719Z,70.27
2022-09-26T03:59:28.380Z,70.14
2022-09-26T04:01:56.799Z,70.38
2022-09-26T04:04:26.045Z,70.13
2022-09-26T04:06:54.768Z,70.19
2022-09-26T04:09:24.722Z,69.79
2022-09-26T04:11:53.392Z,69.71
2022-09-26T04:14:22.620Z,70.01
2022-09-26T04:16:58.491Z,70.02
2022-09-26T04:19:34.779Z,69.87
2022-09-26T04:22:04.256Z,69.66
2022-09-26T04:24:36.078Z,69.20
2022-09-26T04:27:04.988Z,69.01
2022-09-26T04:29:33.614Z,68.75
2022-09-26T04:32:11.265Z,68.99
2022-09-26T04:34:59.754Z,68.96
2022-09-26T04:37:28.092Z,68.42
2022-09-26T04:39:57.687Z,69.04
2022-09-26T04:42:26.041Z,69.15
2022-09-26T04:44:54.392Z,68.84
2022-09-26T04:47:22.584Z,69.41
2022-09-26T04:50:19.442Z,69.53
2022-09-26T04:53:06.474Z,70.11
2022-09-26T04:55:44.813Z,70.31
2022-09-26T04:58:13.338Z,69.82
2022-09-26T05:00:45.805Z,69.82
2022-09-26T05:03:18.392Z,69.94
2022-09-26T05:05:48.571Z,69.99
2022-09-26T05:08:16.882Z,70.60
2022-09-26T05:10:53.896Z,70.37
2022-09-26T05:13:22.484Z,70.70
2022-09-26T05:15:53.371Z,70.70
2022-09-26T05:18:23.361Z,70.49
2022-09-26T05:20:51.914Z,70.69
2022-09-26T05:23:37.020Z,70.06
2022-09-26T05:26:21.301Z,70.17
2022-09-26T05:28:52.402Z,69.84
2022-09-26T05:31:26.573Z,69.77
2022-09-26T05:33:57.291Z,69.92
2022-09-26T05:36:26.036Z,69.62
2022-09-26T05:38:54.549Z,69.93
2022-09-26T05:41:23.708Z,70.07
2022-09-26T05:43:52.194Z,70.41
2022-09-26T05:46:20.465Z,70.49
2022-09-26T05:48:52.517Z,70.36
2022-09-26T05:51:23.552Z,70.78
2022-09-26T05:53:51.889Z,70.72
2022-09-26T05:56:25.542Z,71.01
2022-09-26T05:59:16.994Z,71.14
2022-09-26T06:02:06.275Z,71.14
2022-09-26T06:04:52.932Z,71.61
2022-09-26T06:07:54.227Z,71.64
2022-09-26T06:10:40.775Z,71.23
2022-09-26T06:13:15.512Z,71.22
2022-09-26T06:15:52.223Z,68.02
2022-09-26T06:18:20.532Z,68.91
2022-09-26T06:20:48.758Z,70.01
2022-09-26T06:23:17.322Z,70.38
2022-09-26T06:25:47.355Z,70.18
2022-09-26T06:28:18.113Z,70.14
2022-09-26T06:30:46.519Z,70.64
2022-09-26T06:33:35.470Z,70.62
2022-09-26T06:36:23.879Z,70.57
2022-09-26T06:38:54.563Z,70.64
2022-09-26T06:41:26.062Z,70.97
2022-09-26T06:43:56.067Z,70.19
2022-09-26T06:46:28.015Z,69.81
2022-09-26T06:49:12.379Z,69.71
2022-09-26T06:51:43.979Z,68.89
2022-09-26T06:54:12.309Z,68.35
2022-09-26T06:56:40.742Z,67.80
2022-09-26T06:59:10.431Z,67.17
2022-09-26T07:01:46.444Z,66.68
2022-09-26T07:04:33.665Z,66.95
2022-09-26T07:07:28.021Z,66.09
2022-09-26T07:09:56.625Z,65.46
2022-09-26T07:12:47.314Z,65.29
2022-09-26T07:15:20.580Z,64.62
2022-09-26T07:17:49.709Z,64.45
2022-09-26T07:20:34.491Z,63.29
2022-09-26T07:23:09.616Z,62.97
2022-09-26T07:25:39.689Z,62.76
2022-09-26T07:28:10.368Z,61.89
2022-09-26T07:30:51.543Z,61.56
2022-09-26T07:33:31.718Z,60.51
2022-09-26T07:36:05.806Z,60.85
2022-09-26T07:38:34.286Z,60.54
2022-09-26T07:41:04.231Z,59.76
2022-09-26T07:44:19.295Z,59.34
2022-09-26T07:46:41.618Z,59.30
2022-09-26T07:49:28.369Z,58.37
2022-09-26T07:52:12.310Z,57.74
2022-09-26T07:55:10.507Z,56.94
2022-09-26T07:57:50.064Z,55.82
2022-09-26T08:00:38.236Z,55.12
2022-09-26T08:03:20.767Z,54.98
2022-09-26T08:05:49.569Z,54.82
2022-09-26T08:08:19.097Z,54.39
2022-09-26T08:11:06.316Z,53.81
2022-09-26T08:13:47.117Z,52.93
2022-09-26T08:16:33.935Z,52.81
2022-09-26T08:19:07.959Z,53.14
2022-09-26T08:21:36.820Z,52.84
2022-09-26T08:24:05.153Z,53.47
2022-09-26T08:26:33.420Z,52.38
2022-09-26T08:29:12.513Z,51.85
2022-09-26T08:31:41.849Z,48.95
2022-09-26T08:34:11.607Z,48.76
2022-09-26T08:36:40.383Z,48.36
2022-09-26T08:39:17.397Z,45.86
2022-09-26T08:42:01.742Z,45.80
2022-09-26T08:45:27.633Z,45.19
2022-09-26T08:48:52.096Z,44.89
2022-09-26T08:51:30.016Z,44.43
2022-09-26T08:54:06.853Z,43.32
2022-09-26T08:56:38.519Z,42.77
2022-09-26T08:59:13.541Z,43.11
2022-09-26T09:01:45.181Z,43.36
2022-09-26T09:04:22.215Z,44.17
2022-09-26T09:06:58.980Z,44.68
2022-09-26T09:09:27.248Z,45.39
2022-09-26T09:12:23.842Z,45.90
2022-09-26T09:15:25.782Z,45.59
2022-09-26T09:18:29.296Z,45.50
2022-09-26T09:21:42.765Z,46.04
2022-09-26T09:24:33.889Z,46.41
2022-09-26T09:30:17.802Z,46.02
2022-09-26T09:33:11.273Z,45.96
2022-09-26T09:35:50.768Z,45.96
2022-09-26T09:38:36.053Z,46.04
2022-09-26T09:41:18.289Z,45.28
2022-09-26T09:43:49.813Z,45.86
2022-09-26T09:46:23.187Z,45.29
2022-09-26T09:48:54.890Z,45.63
2022-09-26T09:51:44.432Z,46.13
2022-09-26T09:54:32.609Z,45.87
2022-09-26T09:57:41.796Z,45.40
2022-09-26T10:00:17.244Z,45.06
2022-09-26T10:03:25.202Z,45.46
2022-09-26T10:05:59.763Z,44.34
2022-09-26T10:08:34.358Z,44.51
2022-09-26T10:11:28.358Z,43.85
2022-09-26T10:14:04.842Z,44.14
2022-09-26T10:17:19.641Z,43.77
2022-09-26T10:20:36.505Z,44.26
2022-09-26T10:23:14.108Z,43.42
2022-09-26T10:25:48.594Z,43.79
2022-09-26T10:28:31.263Z,43.54
2022-09-26T10:31:08.975Z,42.77
2022-09-26T10:34:00.248Z,43.46
2022-09-26T10:36:32.206Z,43.54
2022-09-26T10:39:20.753Z,44.19
2022-09-26T10:41:59.208Z,44.23
2022-09-26T10:44:29.356Z,43.00
2022-09-26T10:47:12.765Z,42.86
2022-09-26T10:50:06.563Z,42.47
2022-09-26T10:52:48.471Z,42.75
2022-09-26T10:55:22.115Z,40.90
2022-09-26T10:57:54.164Z,41.18
2022-09-26T11:00:37.790Z,39.11
2022-09-26T11:03:15.621Z,39.31
2022-09-26T11:06:03.924Z,40.27
2022-09-26T11:08:35.617Z,39.71
2022-09-26T11:11:28.080Z,39.41
2022-09-26T11:14:03.590Z,39.77
2022-09-26T11:16:41.891Z,39.52
2022-09-26T11:19:20.809Z,40.19
2022-09-26T11:21:56.840Z,39.97
2022-09-26T11:24:37.276Z,39.92
2022-09-26T11:27:31.542Z,38.80
2022-09-26T11:30:09.453Z,39.25
2022-09-26T11:32:45.116Z,39.63
2022-09-26T11:35:46.921Z,40.47
2022-09-26T11:38:27.597Z,40.85
2022-09-26T11:41:14.791Z,38.91
2022-09-26T11:43:54.605Z,39.65
2022-09-26T11:46:52.664Z,40.21
2022-09-26T11:49:59.247Z,39.16
2022-09-26T11:53:02.224Z,38.42
2022-09-26T11:55:37.309Z,37.95
2022-09-26T11:58:14.946Z,37.19
2022-09-26T12:00:57.049Z,37.12
2022-09-26T12:03:53.502Z,36.58
2022-09-26T12:06:34.744Z,37.93
2022-09-26T12:09:24.056Z,37.84
2022-09-26T12:12:06.087Z,37.48
2022-09-26T12:14:45.662Z,36.97
2022-09-26T12:17:21.348Z,36.60
2022-09-26T12:19:58.689Z,36.09
2022-09-26T12:22:36.182Z,36.78
2022-09-26T12:25:36.210Z,36.41
2022-09-26T12:28:27.739Z,36.36
2022-09-26T12:31:11.523Z,36.88
2022-09-26T12:34:12.445Z,37.75
2022-09-26T12:36:53.526Z,37.17
2022-09-26T12:39:43.131Z,36.27
2022-09-26T12:42:35.264Z,36.10
2022-09-26T12:45:26.750Z,35.83
2022-09-26T12:48:13.003Z,35.67
2022-09-26T12:50:52.143Z,35.92
2022-09-26T12:53:44.750Z,35.89
2022-09-26T12:56:22.434Z,35.67
2022-09-26T12:59:07.622Z,35.93
2022-09-26T13:01:49.844Z,36.05
2022-09-26T13:04:41.917Z,35.73
2022-09-26T13:07:27.356Z,36.46
2022-09-26T13:10:13.008Z,36.03
2022-09-26T13:12:56.432Z,35.97
2022-09-26T13:15:34.942Z,35.84
2022-09-26T13:18:10.278Z,36.35
2022-09-26T13:20:43.789Z,36.92
2022-09-26T13:23:20.346Z,36.19
2022-09-26T13:25:54.067Z,36.77
2022-09-26T13:28:26.756Z,35.84
2022-09-26T13:31:02.145Z,36.06
2022-09-26T13:33:37.230Z,35.18
2022-09-26T13:36:07.018Z,36.05
2022-09-26T13:38:43.326Z,35.36
2022-09-26T13:41:29.776Z,35.41
2022-09-26T13:44:09.276Z,35.30
2022-09-26T13:46:52.944Z,35.73
2022-09-26T13:49:51.054Z,35.98
2022-09-26T13:52:27.798Z,35.65
2022-09-26T13:55:02.334Z,35.90
2022-09-26T13:57:37.083Z,35.12
2022-09-26T14:00:17.121Z,34.82
2022-09-26T14:03:25.904Z,35.14
2022-09-26T14:06:09.119Z,34.89
2022-09-26T14:08:55.488Z,35.03
2022-09-26T14:11:30.551Z,34.81
2022-09-26T14:14:25.304Z,36.04
2022-09-26T14:16:55.003Z,36.24
2022-09-26T14:19:32.670Z,35.92
2022-09-26T14:22:03.675Z,35.47
2022-09-26T14:24:37.831Z,35.65
2022-09-26T14:27:22.503Z,35.50
2022-09-26T14:29:54.204Z,35.42
2022-09-26T14:32:27.543Z,34.91
2022-09-26T14:34:59.483Z,34.94
2022-09-26T14:37:40.512Z,34.66
2022-09-26T14:40:25.410Z,35.04
2022-09-26T14:42:56.728Z,34.71
2022-09-26T14:45:28.053Z,34.45
2022-09-26T14:48:06.536Z,33.83
2022-09-26T14:50:48.945Z,34.65
2022-09-26T14:53:26.148Z,35.49
2022-09-26T14:55:59.229Z,35.35
2022-09-26T14:58:47.660Z,35.10
2022-09-26T15:01:20.885Z,34.86
2022-09-26T15:03:55.704Z,35.21
2022-09-26T15:06:28.231Z,35.37
2022-09-26T15:08:59.344Z,35.27
2022-09-26T15:11:34.778Z,35.38
2022-09-26T15:14:16.075Z,35.80
2022-09-26T15:16:50.169Z,35.45
2022-09-26T15:19:23.500Z,35.89
2022-09-26T15:21:58.513Z,36.53
2022-09-26T15:24:29.681Z,36.35
2022-09-26T15:27:01.149Z,36.57
2022-09-26T15:29:29.642Z,36.74
2022-09-26T15:31:58.024Z,36.70
2022-09-26T15:34:34.385Z,36.88
2022-09-26T15:37:15.690Z,36.93
2022-09-26T15:39:44.598Z,37.46
2022-09-26T15:42:38.733Z,37.27
2022-09-26T15:45:27.118Z,37.56
2022-09-26T15:47:56.513Z,37.45
2022-09-26T15:50:28.817Z,37.55
2022-09-26T15:53:03.506Z,37.55
2022-09-26T15:55:35.779Z,37.76
2022-09-26T15:58:08.169Z,37.95
2022-09-26T16:00:41.917Z,37.63
2022-09-26T16:03:34.352Z,37.56
2022-09-26T16:06:03.050Z,37.72
2022-09-26T16:08:37.482Z,38.07
2022-09-26T16:11:07.605Z,39.03
2022-09-26T16:13:40.109Z,40.43
2022-09-26T16:16:13.918Z,39.78
2022-09-26T16:18:48.326Z,39.36
2022-09-26T16:21:19.364Z,39.09
2022-09-26T16:23:50.851Z,38.52
2022-09-26T16:26:25.032Z,38.78
2022-09-26T16:28:53.850Z,39.16
2022-09-26T16:31:29.684Z,39.31
2022-09-26T16:34:01.297Z,40.03
2022-09-26T16:36:32.743Z,39.87
2022-09-26T16:39:05.491Z,39.58
2022-09-26T16:44:34.825Z,40.00
2022-09-26T16:47:06.187Z,39.98
2022-09-26T16:49:46.168Z,39.91
2022-09-26T16:52:29.038Z,39.57
2022-09-26T16:55:00.673Z,40.03
2022-09-26T16:57:31.444Z,40.16
2022-09-26T17:00:15.938Z,39.83
2022-09-26T17:02:44.521Z,40.37
2022-09-26T17:05:18.703Z,40.60
2022-09-26T17:07:48.598Z,40.54
2022-09-26T17:10:19.716Z,40.48
2022-09-26T17:12:50.772Z,41.04
2022-09-26T17:15:23.454Z,41.21
2022-09-26T17:17:54.321Z,41.19
2022-09-26T17:20:23.735Z,41.38
2022-09-26T17:22:54.482Z,42.28
2022-09-26T17:25:25.302Z,41.60
2022-09-26T17:27:58.150Z,41.47
2022-09-26T17:30:26.802Z,42.00
2022-09-26T17:32:55.590Z,41.99
2022-09-26T17:35:29.623Z,42.15
2022-09-26T17:37:58.153Z,42.54
2022-09-26T17:40:30.675Z,42.21
2022-09-26T17:43:01.843Z,42.71
2022-09-26T17:45:32.458Z,42.71
2022-09-26T17:48:04.208Z,42.51
2022-09-26T17:50:35.567Z,42.65
2022-09-26T17:53:04.160Z,43.02
2022-09-26T17:55:33.885Z,43.49
2022-09-26T17:58:02.421Z,43.25
2022-09-26T18:00:35.340Z,43.22
2022-09-26T18:03:05.004Z,42.94
2022-09-26T18:05:36.473Z,44.29
2022-09-26T18:08:12.950Z,43.88
2022-09-26T18:10:50.251Z,43.42
2022-09-26T18:13:25.204Z,43.43
2022-09-26T18:15:54.198Z,44.23
2022-09-26T18:18:24.818Z,43.54
2022-09-26T18:20:54.251Z,43.42
2022-09-26T18:23:25.265Z,43.50
2022-09-26T18:25:58.305Z,43.00
2022-09-26T18:28:27.333Z,42.82
2022-09-26T18:30:59.244Z,42.96
2022-09-26T18:33:29.198Z,43.30
2022-09-26T18:35:59.485Z,44.55
2022-09-26T18:38:28.047Z,45.41
2022-09-26T18:40:59.055Z,44.78
2022-09-26T18:43:37.627Z,44.54
2022-09-26T18:46:11.249Z,43.82
2022-09-26T18:48:39.671Z,43.59
2022-09-26T18:51:08.800Z,43.14
2022-09-26T18:53:41.447Z,44.08
2022-09-26T18:56:29.496Z,43.49
2022-09-26T18:58:58.484Z,43.24
2022-09-26T19:01:33.095Z,43.00
2022-09-26T19:04:04.818Z,43.04
2022-09-26T19:06:37.659Z,42.35
2022-09-26T19:09:07.782Z,42.62
2022-09-26T19:11:37.563Z,42.29
2022-09-26T19:14:13.803Z,42.34
2022-09-26T19:16:42.865Z,42.35
2022-09-26T19:19:11.250Z,41.76
2022-09-26T19:21:42.109Z,41.56
2022-09-26T19:24:20.635Z,41.80
2022-09-26T19:26:53.441Z,41.13
2022-09-26T19:29:30.529Z,40.93
2022-09-26T19:31:59.461Z,40.81
2022-09-26T19:34:32.576Z,40.74
2022-09-26T19:37:04.041Z,40.89
2022-09-26T19:39:32.995Z,40.66
2022-09-26T19:42:02.901Z,40.20
2022-09-26T19:44:31.240Z,40.60
2022-09-26T19:46:59.975Z,40.50
2022-09-26T19:49:30.105Z,40.80
2022-09-26T19:52:01.199Z,40.76
2022-09-26T19:54:30.119Z,40.78
2022-09-26T19:56:58.841Z,40.64
2022-09-26T19:59:28.644Z,40.71
2022-09-26T20:01:57.305Z,41.16
2022-09-26T20:04:25.942Z,41.24
2022-09-26T20:06:54.216Z,41.48
2022-09-26T20:09:22.585Z,41.76
2022-09-26T20:11:50.895Z,41.79
2022-09-26T20:14:25.030Z,41.44
2022-09-26T20:16:57.512Z,41.51
2022-09-26T20:19:31.898Z,41.49
2022-09-26T20:22:03.309Z,41.42
2022-09-26T20:24:34.567Z,41.71
2022-09-26T20:27:05.252Z,41.98
2022-09-26T20:29:53.528Z,42.19
2022-09-26T20:32:23.245Z,42.71
2022-09-26T20:34:51.561Z,42.66
2022-09-26T20:37:22.448Z,42.96
2022-09-26T20:39:52.535Z,43.09
2022-09-26T20:42:22.196Z,43.40
2022-09-26T20:44:51.147Z,43.53
2022-09-26T20:47:21.335Z,43.69
2022-09-26T20:49:54.534Z,44.27
2022-09-26T20:52:24.872Z,44.36
2022-09-26T20:54:53.711Z,44.04
2022-09-26T20:57:23.290Z,44.09
2022-09-26T20:59:51.882Z,44.54
2022-09-26T21:02:29.582Z,44.34
2022-09-26T21:05:01.851Z,44.89
2022-09-26T21:07:32.622Z,44.84
2022-09-26T21:10:00.999Z,44.98
2022-09-26T21:12:29.328Z,45.31
2022-09-26T21:14:57.688Z,45.43
2022-09-26T21:17:28.246Z,45.50
2022-09-26T21:19:58.407Z,45.40
2022-09-26T21:22:57.372Z,45.91
2022-09-26T21:25:27.582Z,46.17
2022-09-26T21:27:58.631Z,46.49
2022-09-26T21:30:27.159Z,46.71
2022-09-26T21:32:58.262Z,47.22
2022-09-26T21:35:31.995Z,47.43
2022-09-26T21:38:02.310Z,47.94
2022-09-26T21:40:33.976Z,48.23
2022-09-26T21:43:11.317Z,48.29
2022-09-26T21:45:40.395Z,48.53
2022-09-26T21:48:08.701Z,48.75
2022-09-26T21:50:42.002Z,48.77
2022-09-26T21:53:14.050Z,49.03
2022-09-26T21:55:47.051Z,49.23
2022-09-26T21:58:20.592Z,49.30
2022-09-26T22:00:48.877Z,49.26
2022-09-26T22:03:17.186Z,49.37
2022-09-26T22:05:47.022Z,49.36
2022-09-26T22:08:15.482Z,49.46
2022-09-26T22:10:43.864Z,49.71
2022-09-26T22:13:12.327Z,49.81
2022-09-26T22:15:40.629Z,49.85
2022-09-26T22:18:09.865Z,50.14
2022-09-26T22:20:38.247Z,50.12
2022-09-26T22:23:07.888Z,50.30
2022-09-26T22:25:39.654Z,50.06
2022-09-26T22:28:10.576Z,49.83
2022-09-26T22:30:40.478Z,49.81
2022-09-26T22:33:08.828Z,50.02
2022-09-26T22:35:37.223Z,49.90
2022-09-26T22:38:05.604Z,49.56
2022-09-26T22:40:35.937Z,49.59
2022-09-26T22:43:04.321Z,49.69
2022-09-26T22:45:32.697Z,49.77
2022-09-26T22:48:01.112Z,49.92
2022-09-26T22:50:29.697Z,50.00
2022-09-26T22:52:59.107Z,50.00
2022-09-26T22:55:27.409Z,49.83
2022-09-26T22:57:57.267Z,49.76
2022-09-26T23:00:25.598Z,49.52
2022-09-26T23:02:54.121Z,49.70
2022-09-26T23:05:22.485Z,49.65
2022-09-26T23:07:54.269Z,49.56
2022-09-26T23:10:23.139Z,49.97
2022-09-26T23:12:51.445Z,50.21
2022-09-26T23:15:21.157Z,50.40
2022-09-26T23:17:49.459Z,50.46
2022-09-26T23:20:17.914Z,50.66
2022-09-26T23:22:46.201Z,50.95
2022-09-26T23:25:14.525Z,51.51
2022-09-26T23:27:42.863Z,52.39
2022-09-26T23:30:12.421Z,52.64
2022-09-26T23:32:42.140Z,52.86
2022-09-26T23:35:10.713Z,53.22
2022-09-26T23:37:39.008Z,53.31
2022-09-26T23:40:08.441Z,53.48
2022-09-26T23:42:36.757Z,53.99
2022-09-26T23:45:05.610Z,54.14
2022-09-26T23:47:34.561Z,53.99
2022-09-26T23:50:04.372Z,54.15
2022-09-26T23:52:32.620Z,54.60
2022-09-26T23:55:01.138Z,55.02
2022-09-26T23:57:29.433Z,55.18
2022-09-26T23:59:57.775Z,55.03
